createdAt,value
2019-04-03T00:00:27.714Z,997.84
2019-04-03T00:01:27.719Z,997.80
2019-04-03T00:03:20.629Z,997.80
2019-04-03T00:04:20.674Z,997.75
2019-04-03T00:06:13.537Z,997.74
2019-04-03T00:07:13.553Z,997.76
2019-04-03T00:09:07.003Z,997.73
2019-04-03T00:10:07.264Z,997.73
2019-04-03T00:11:59.367Z,997.74
2019-04-03T00:12:59.384Z,997.74
2019-04-03T00:14:52.291Z,997.70
2019-04-03T00:15:52.364Z,997.70
2019-04-03T00:17:46.008Z,997.67
2019-04-03T00:18:46.870Z,997.68
2019-04-03T00:20:38.120Z,997.68
2019-04-03T00:21:38.126Z,997.71
2019-04-03T00:23:31.036Z,997.74
2019-04-03T00:24:31.040Z,997.76
2019-04-03T00:26:24.022Z,997.73
2019-04-03T00:27:23.953Z,997.75
2019-04-03T00:29:16.862Z,997.76
2019-04-03T00:30:16.868Z,997.71
2019-04-03T00:32:09.771Z,997.80
2019-04-03T00:33:09.831Z,997.83
2019-04-03T00:35:02.698Z,997.80
2019-04-03T00:36:02.696Z,997.80
2019-04-03T00:37:55.708Z,997.77
2019-04-03T00:38:55.612Z,997.79
2019-04-03T00:40:48.517Z,997.81
2019-04-03T00:41:48.523Z,997.80
2019-04-03T00:43:41.452Z,997.82
2019-04-03T00:44:41.436Z,997.80
2019-04-03T00:46:34.339Z,997.81
2019-04-03T00:47:34.418Z,997.82
2019-04-03T00:49:27.271Z,997.78
2019-04-03T00:50:27.259Z,997.76
2019-04-03T00:52:20.173Z,997.79
2019-04-03T00:53:20.175Z,997.78
2019-04-03T00:55:13.089Z,997.75
2019-04-03T00:56:13.094Z,997.79
2019-04-03T00:58:06.000Z,997.80
2019-04-03T00:59:06.010Z,997.78
2019-04-03T01:00:59.114Z,997.73
2019-04-03T01:01:58.924Z,997.72
2019-04-03T01:03:51.834Z,997.75
2019-04-03T01:04:51.893Z,997.75
2019-04-03T01:06:44.744Z,997.75
2019-04-03T01:07:44.754Z,997.76
2019-04-03T01:09:37.661Z,997.72
2019-04-03T01:10:37.664Z,997.76
2019-04-03T01:12:31.465Z,997.80
2019-04-03T01:13:31.321Z,997.81
2019-04-03T01:15:23.527Z,997.81
2019-04-03T01:16:23.491Z,997.77
2019-04-03T01:18:16.397Z,997.74
2019-04-03T01:19:16.404Z,997.74
2019-04-03T01:21:09.315Z,997.71
2019-04-03T01:22:09.396Z,997.69
2019-04-03T01:24:02.312Z,997.69
2019-04-03T01:25:02.229Z,997.70
2019-04-03T01:26:55.141Z,997.70
2019-04-03T01:27:55.142Z,997.70
2019-04-03T01:29:48.053Z,997.62
2019-04-03T01:30:48.056Z,997.61
2019-04-03T01:32:40.960Z,997.60
2019-04-03T01:33:41.097Z,997.58
2019-04-03T01:35:33.892Z,997.59
2019-04-03T01:36:33.882Z,997.60
2019-04-03T01:38:26.791Z,997.61
2019-04-03T01:39:26.849Z,997.58
2019-04-03T01:41:21.201Z,997.55
2019-04-03T01:42:21.497Z,997.53
2019-04-03T01:44:12.621Z,997.55
2019-04-03T01:45:12.685Z,997.54
2019-04-03T01:47:05.539Z,997.57
2019-04-03T01:48:05.540Z,997.58
2019-04-03T01:49:59.071Z,997.51
2019-04-03T01:50:59.598Z,997.48
2019-04-03T01:52:51.353Z,997.45
2019-04-03T01:53:51.364Z,997.42
2019-04-03T01:55:44.274Z,997.37
2019-04-03T01:56:44.276Z,997.33
2019-04-03T01:58:37.193Z,997.33
2019-04-03T01:59:37.662Z,997.27
2019-04-03T02:01:30.092Z,997.28
2019-04-03T02:02:30.103Z,997.30
2019-04-03T02:04:23.017Z,997.33
2019-04-03T02:05:23.024Z,997.30
2019-04-03T02:07:15.925Z,997.28
2019-04-03T02:08:15.937Z,997.32
2019-04-03T02:10:08.859Z,997.29
2019-04-03T02:11:08.849Z,997.30
2019-04-03T02:13:01.754Z,997.29
2019-04-03T02:14:01.765Z,997.31
2019-04-03T02:15:54.864Z,997.31
2019-04-03T02:16:54.689Z,997.33
2019-04-03T02:18:47.587Z,997.30
2019-04-03T02:19:47.591Z,997.34
2019-04-03T02:21:40.495Z,997.38
2019-04-03T02:22:40.507Z,997.35
2019-04-03T02:24:33.910Z,997.30
2019-04-03T02:25:33.916Z,997.30
2019-04-03T02:27:26.818Z,997.29
2019-04-03T02:28:26.828Z,997.31
2019-04-03T02:30:19.829Z,997.32
2019-04-03T02:31:20.477Z,997.28
2019-04-03T02:33:12.931Z,997.28
2019-04-03T02:34:12.665Z,997.24
2019-04-03T02:36:05.563Z,997.31
2019-04-03T02:37:05.574Z,997.31
2019-04-03T02:38:58.479Z,997.26
2019-04-03T02:40:00.341Z,997.25
2019-04-03T02:41:51.385Z,997.22
2019-04-03T02:42:51.396Z,997.27
2019-04-03T02:44:44.304Z,997.21
2019-04-03T02:45:44.358Z,997.24
2019-04-03T02:47:37.218Z,997.23
2019-04-03T02:48:38.267Z,997.22
2019-04-03T02:50:30.139Z,997.26
2019-04-03T02:51:30.231Z,997.27
2019-04-03T02:53:23.040Z,997.29
2019-04-03T02:54:23.049Z,997.24
2019-04-03T02:56:16.081Z,997.25
2019-04-03T02:57:17.548Z,997.24
2019-04-03T02:59:08.879Z,997.22
2019-04-03T03:00:08.880Z,997.26
2019-04-03T03:02:01.778Z,997.19
2019-04-03T03:03:01.798Z,997.27
2019-04-03T03:04:55.601Z,997.28
2019-04-03T03:05:54.707Z,997.26
2019-04-03T03:07:47.609Z,997.31
2019-04-03T03:08:47.629Z,997.30
2019-04-03T03:10:40.528Z,997.39
2019-04-03T03:11:40.819Z,997.38
2019-04-03T03:13:34.607Z,997.42
2019-04-03T03:14:33.446Z,997.45
2019-04-03T03:16:26.354Z,997.46
2019-04-03T03:17:26.359Z,997.44
2019-04-03T03:19:19.616Z,997.46
2019-04-03T03:20:19.277Z,997.51
2019-04-03T03:22:12.574Z,997.46
2019-04-03T03:23:12.193Z,997.52
2019-04-03T03:25:05.097Z,997.50
2019-04-03T03:26:05.753Z,997.53
2019-04-03T03:27:58.002Z,997.41
2019-04-03T03:29:14.241Z,997.35
2019-04-03T03:31:00.962Z,997.33
2019-04-03T03:32:15.484Z,997.34
2019-04-03T03:33:43.962Z,997.29
2019-04-03T03:34:53.774Z,997.31
2019-04-03T03:36:37.039Z,997.26
2019-04-03T03:37:36.792Z,997.26
2019-04-03T03:39:29.690Z,997.24
2019-04-03T03:40:29.680Z,997.27
2019-04-03T03:42:22.938Z,997.26
2019-04-03T03:43:22.595Z,997.30
2019-04-03T03:45:18.376Z,997.29
2019-04-03T03:46:15.566Z,997.26
2019-04-03T03:48:10.384Z,997.28
2019-04-03T03:49:08.427Z,997.35
2019-04-03T03:51:01.333Z,997.30
2019-04-03T03:52:04.084Z,997.28
2019-04-03T03:53:54.248Z,997.26
2019-04-03T03:54:54.259Z,997.27
2019-04-03T03:56:47.208Z,997.29
2019-04-03T03:57:47.175Z,997.30
2019-04-03T03:59:40.078Z,997.28
2019-04-03T04:00:40.088Z,997.28
2019-04-03T04:02:36.107Z,997.29
2019-04-03T04:03:33.001Z,997.31
2019-04-03T04:05:26.057Z,997.31
2019-04-03T04:06:29.061Z,997.31
2019-04-03T04:08:18.916Z,997.32
2019-04-03T04:09:18.825Z,997.35
2019-04-03T04:11:11.747Z,997.30
2019-04-03T04:12:11.984Z,997.26
2019-04-03T04:14:04.994Z,997.28
2019-04-03T04:15:04.660Z,997.27
2019-04-03T04:16:57.903Z,997.24
2019-04-03T04:17:57.576Z,997.22
2019-04-03T04:19:50.487Z,997.26
2019-04-03T04:20:50.490Z,997.33
2019-04-03T04:22:43.394Z,997.34
2019-04-03T04:23:43.404Z,997.36
2019-04-03T04:25:36.314Z,997.35
2019-04-03T04:26:36.320Z,997.31
2019-04-03T04:28:29.221Z,997.24
2019-04-03T04:29:29.232Z,997.24
2019-04-03T04:31:22.136Z,997.29
2019-04-03T04:32:22.147Z,997.27
2019-04-03T04:34:15.094Z,997.27
2019-04-03T04:35:15.061Z,997.27
2019-04-03T04:37:07.966Z,997.33
2019-04-03T04:38:07.978Z,997.30
2019-04-03T04:40:01.043Z,997.28
2019-04-03T04:41:01.844Z,997.30
2019-04-03T04:42:53.796Z,997.33
2019-04-03T04:43:53.807Z,997.36
2019-04-03T04:45:46.714Z,997.34
2019-04-03T04:46:46.727Z,997.35
2019-04-03T04:48:39.811Z,997.35
2019-04-03T04:49:39.634Z,997.33
2019-04-03T04:51:32.560Z,997.32
2019-04-03T04:52:32.552Z,997.29
2019-04-03T04:54:25.459Z,997.29
2019-04-03T04:55:25.465Z,997.29
2019-04-03T04:57:18.567Z,997.22
2019-04-03T04:58:18.380Z,997.22
2019-04-03T05:00:11.293Z,997.28
2019-04-03T05:01:11.296Z,997.32
2019-04-03T05:03:04.315Z,997.32
2019-04-03T05:04:04.210Z,997.35
2019-04-03T05:05:58.476Z,997.34
2019-04-03T05:06:59.695Z,997.36
2019-04-03T05:08:50.030Z,997.37
2019-04-03T05:09:50.124Z,997.37
2019-04-03T05:11:42.951Z,997.39
2019-04-03T05:12:45.345Z,997.42
2019-04-03T05:14:35.863Z,997.42
2019-04-03T05:15:35.870Z,997.40
2019-04-03T05:17:28.776Z,997.33
2019-04-03T05:18:29.328Z,997.35
2019-04-03T05:20:21.808Z,997.34
2019-04-03T05:21:22.318Z,997.36
2019-04-03T05:23:14.602Z,997.38
2019-04-03T05:24:14.616Z,997.33
2019-04-03T05:26:07.597Z,997.32
2019-04-03T05:27:08.393Z,997.28
2019-04-03T05:29:00.430Z,997.22
2019-04-03T05:30:00.448Z,997.20
2019-04-03T05:31:53.349Z,997.19
2019-04-03T05:32:53.354Z,997.23
2019-04-03T05:34:46.262Z,997.28
2019-04-03T05:35:46.626Z,997.32
2019-04-03T05:37:39.172Z,997.33
2019-04-03T05:38:39.181Z,997.30
2019-04-03T05:40:32.205Z,997.28
2019-04-03T05:41:32.094Z,997.32
2019-04-03T05:43:24.995Z,997.33
2019-04-03T05:44:25.006Z,997.29
2019-04-03T05:46:19.525Z,997.31
2019-04-03T05:47:18.385Z,997.31
2019-04-03T05:49:11.062Z,997.32
2019-04-03T05:50:10.834Z,997.28
2019-04-03T05:52:04.719Z,997.28
2019-04-03T05:53:06.102Z,997.30
2019-04-03T05:54:57.150Z,997.35
2019-04-03T05:55:57.237Z,997.33
2019-04-03T05:57:50.058Z,997.36
2019-04-03T05:58:55.974Z,997.34
2019-04-03T06:00:42.979Z,997.38
2019-04-03T06:01:46.087Z,997.37
2019-04-03T06:03:40.768Z,997.35
2019-04-03T06:04:35.969Z,997.40
2019-04-03T06:06:28.808Z,997.36
2019-04-03T06:07:28.813Z,997.40
2019-04-03T06:09:22.441Z,997.47
2019-04-03T06:10:21.724Z,997.53
2019-04-03T06:12:16.773Z,997.53
2019-04-03T06:13:16.676Z,997.53
2019-04-03T06:15:09.219Z,997.53
2019-04-03T06:16:07.550Z,997.57
2019-04-03T06:18:00.471Z,997.57
2019-04-03T06:19:00.466Z,997.55
2019-04-03T06:20:53.374Z,997.52
2019-04-03T06:21:53.448Z,997.54
2019-04-03T06:23:46.282Z,997.54
2019-04-03T06:24:46.291Z,997.56
2019-04-03T06:26:39.202Z,997.60
2019-04-03T06:27:42.177Z,997.61
2019-04-03T06:29:32.114Z,997.60
2019-04-03T06:30:32.120Z,997.61
2019-04-03T06:32:25.124Z,997.60
2019-04-03T06:33:25.036Z,997.61
2019-04-03T06:35:18.296Z,997.59
2019-04-03T06:36:18.489Z,997.60
2019-04-03T06:38:10.994Z,997.53
2019-04-03T06:39:11.007Z,997.55
2019-04-03T06:41:04.031Z,997.65
2019-04-03T06:42:03.921Z,997.72
2019-04-03T06:43:56.822Z,997.68
2019-04-03T06:44:56.926Z,997.64
2019-04-03T06:46:49.744Z,997.61
2019-04-03T06:47:49.749Z,997.60
2019-04-03T06:49:42.656Z,997.73
2019-04-03T06:50:42.661Z,997.64
2019-04-03T06:52:35.570Z,997.59
2019-04-03T06:53:35.576Z,997.53
2019-04-03T06:55:28.489Z,997.62
2019-04-03T06:56:28.490Z,997.65
2019-04-03T06:58:21.667Z,997.66
2019-04-03T06:59:21.582Z,997.63
2019-04-03T07:01:14.348Z,997.64
2019-04-03T07:02:14.323Z,997.66
2019-04-03T07:04:07.296Z,997.62
2019-04-03T07:05:09.633Z,997.55
2019-04-03T07:07:00.246Z,997.55
2019-04-03T07:08:00.857Z,997.59
2019-04-03T07:09:53.056Z,997.64
2019-04-03T07:10:55.849Z,997.67
2019-04-03T07:12:48.199Z,997.59
2019-04-03T07:13:46.468Z,997.56
2019-04-03T07:15:39.496Z,997.51
2019-04-03T07:16:39.386Z,997.54
2019-04-03T07:18:32.289Z,997.59
2019-04-03T07:19:32.301Z,997.62
2019-04-03T07:21:27.464Z,997.66
2019-04-03T07:22:27.047Z,997.64
2019-04-03T07:24:18.118Z,997.65
2019-04-03T07:25:18.127Z,997.68
2019-04-03T07:27:11.290Z,997.70
2019-04-03T07:28:11.044Z,997.74
2019-04-03T07:30:03.952Z,997.71
2019-04-03T07:31:04.247Z,997.65
2019-04-03T07:32:58.315Z,997.58
2019-04-03T07:33:58.431Z,997.62
2019-04-03T07:35:49.779Z,997.68
2019-04-03T07:36:49.788Z,997.64
2019-04-03T07:38:42.688Z,997.65
2019-04-03T07:39:42.773Z,997.66
2019-04-03T07:41:35.610Z,997.66
2019-04-03T07:42:35.674Z,997.65
2019-04-03T07:44:29.831Z,997.70
2019-04-03T07:45:28.526Z,997.69
2019-04-03T07:47:21.581Z,997.74
2019-04-03T07:48:21.441Z,997.69
2019-04-03T07:50:14.379Z,997.73
2019-04-03T07:51:14.355Z,997.70
2019-04-03T07:53:07.258Z,997.71
2019-04-03T07:54:07.370Z,997.72
2019-04-03T07:56:00.264Z,997.74
2019-04-03T07:57:00.182Z,997.72
2019-04-03T07:58:53.591Z,997.73
2019-04-03T07:59:53.106Z,997.67
2019-04-03T08:01:46.004Z,997.65
2019-04-03T08:02:48.631Z,997.70
2019-04-03T08:04:38.966Z,997.74
2019-04-03T08:05:39.018Z,997.69
2019-04-03T08:07:31.830Z,997.68
2019-04-03T08:08:31.839Z,997.64
2019-04-03T08:10:24.749Z,997.66
2019-04-03T08:11:24.754Z,997.68
2019-04-03T08:13:17.658Z,997.79
2019-04-03T08:14:19.403Z,997.77
2019-04-03T08:16:10.794Z,997.80
2019-04-03T08:17:10.585Z,997.75
2019-04-03T08:19:03.484Z,997.67
2019-04-03T08:20:03.500Z,997.66
2019-04-03T08:21:56.408Z,997.69
2019-04-03T08:22:56.411Z,997.70
2019-04-03T08:24:52.229Z,997.73
2019-04-03T08:25:49.326Z,997.77
2019-04-03T08:27:42.432Z,997.76
2019-04-03T08:28:42.239Z,997.73
2019-04-03T08:30:35.152Z,997.72
2019-04-03T08:31:35.170Z,997.73
2019-04-03T08:33:28.292Z,997.79
2019-04-03T08:34:30.739Z,997.81
2019-04-03T08:36:24.907Z,997.80
2019-04-03T08:37:29.511Z,997.78
2019-04-03T08:39:16.023Z,997.75
2019-04-03T08:40:13.956Z,997.77
2019-04-03T08:42:07.059Z,997.82
2019-04-03T08:43:06.815Z,997.94
2019-04-03T08:44:59.725Z,998.08
2019-04-03T08:45:59.728Z,998.04
2019-04-03T08:47:52.632Z,997.98
2019-04-03T08:48:54.729Z,998.01
2019-04-03T08:50:45.613Z,998.15
2019-04-03T08:51:45.564Z,998.23
2019-04-03T08:53:39.678Z,998.16
2019-04-03T08:54:41.351Z,998.02
2019-04-03T08:56:31.388Z,997.91
2019-04-03T08:57:31.597Z,997.90
2019-04-03T08:59:24.295Z,997.96
2019-04-03T09:00:24.307Z,997.97
2019-04-03T09:02:17.215Z,997.97
2019-04-03T09:03:17.222Z,997.95
2019-04-03T09:05:13.192Z,997.97
2019-04-03T09:06:10.158Z,997.99
2019-04-03T09:08:03.196Z,997.93
2019-04-03T09:09:03.048Z,997.90
2019-04-03T09:10:56.061Z,997.93
2019-04-03T09:11:55.962Z,997.91
2019-04-03T09:13:48.869Z,997.89
2019-04-03T09:14:48.875Z,997.95
2019-04-03T09:16:41.784Z,997.96
2019-04-03T09:17:41.789Z,997.97
2019-04-03T09:19:34.694Z,997.94
2019-04-03T09:20:35.858Z,997.91
2019-04-03T09:22:27.610Z,997.90
2019-04-03T09:23:27.616Z,997.94
2019-04-03T09:25:20.525Z,997.97
2019-04-03T09:26:20.779Z,997.93
2019-04-03T09:28:13.437Z,997.93
2019-04-03T09:29:13.798Z,997.95
2019-04-03T09:31:06.356Z,997.95
2019-04-03T09:32:06.435Z,997.88
2019-04-03T09:33:59.265Z,997.89
2019-04-03T09:35:01.414Z,997.85
2019-04-03T09:36:52.184Z,997.83
2019-04-03T09:37:52.269Z,997.83
2019-04-03T09:39:45.971Z,997.80
2019-04-03T09:40:47.243Z,997.76
2019-04-03T09:42:38.016Z,997.78
2019-04-03T09:43:39.921Z,997.77
2019-04-03T09:45:31.308Z,997.76
2019-04-03T09:46:31.571Z,997.77
2019-04-03T09:48:24.057Z,997.71
2019-04-03T09:49:23.850Z,997.72
2019-04-03T09:51:18.654Z,997.75
2019-04-03T09:52:16.763Z,997.73
2019-04-03T09:54:09.693Z,997.72
2019-04-03T09:55:09.715Z,997.73
2019-04-03T09:57:04.874Z,997.71
2019-04-03T09:58:04.054Z,997.70
2019-04-03T09:59:55.769Z,997.66
2019-04-03T10:00:55.502Z,997.67
2019-04-03T10:02:50.795Z,997.69
2019-04-03T10:03:48.419Z,997.68
2019-04-03T10:05:41.327Z,997.74
2019-04-03T10:06:41.589Z,997.72
2019-04-03T10:08:34.235Z,997.69
2019-04-03T10:09:34.246Z,997.67
2019-04-03T10:11:27.155Z,997.65
2019-04-03T10:12:27.174Z,997.70
2019-04-03T10:14:20.241Z,997.73
2019-04-03T10:15:20.322Z,997.69
2019-04-03T10:17:13.106Z,997.67
2019-04-03T10:18:13.066Z,997.70
2019-04-03T10:20:05.994Z,997.74
2019-04-03T10:21:05.981Z,997.74
2019-04-03T10:22:58.951Z,997.76
2019-04-03T10:23:59.979Z,997.78
2019-04-03T10:25:53.269Z,997.74
2019-04-03T10:26:51.887Z,997.78
2019-04-03T10:28:46.773Z,997.79
2019-04-03T10:29:44.790Z,997.82
2019-04-03T10:31:37.698Z,997.80
2019-04-03T10:32:37.812Z,997.87
2019-04-03T10:34:30.621Z,997.98
2019-04-03T10:35:30.650Z,997.96
2019-04-03T10:37:23.533Z,997.88
2019-04-03T10:38:23.536Z,997.82
2019-04-03T10:40:16.447Z,997.98
2019-04-03T10:41:16.454Z,997.97
2019-04-03T10:43:09.356Z,997.82
2019-04-03T10:44:10.222Z,997.81
2019-04-03T10:46:02.279Z,997.83
2019-04-03T10:47:02.385Z,997.81
2019-04-03T10:48:55.202Z,997.86
2019-04-03T10:49:55.402Z,997.81
2019-04-03T10:51:48.113Z,997.84
2019-04-03T10:52:49.284Z,997.82
2019-04-03T10:54:41.337Z,997.84
2019-04-03T10:55:41.035Z,997.80
2019-04-03T10:57:34.864Z,997.85
2019-04-03T10:58:34.095Z,997.85
2019-04-03T11:00:28.833Z,997.86
2019-04-03T11:01:27.012Z,997.88
2019-04-03T11:03:19.915Z,997.87
2019-04-03T11:04:19.928Z,997.89
2019-04-03T11:06:12.853Z,997.83
2019-04-03T11:07:12.847Z,997.82
2019-04-03T11:09:05.766Z,997.83
2019-04-03T11:10:05.764Z,997.81
2019-04-03T11:12:00.580Z,997.83
2019-04-03T11:12:58.988Z,997.79
2019-04-03T11:14:51.581Z,997.81
2019-04-03T11:15:51.593Z,997.83
2019-04-03T11:17:44.503Z,997.80
2019-04-03T11:18:56.807Z,997.83
2019-04-03T11:20:38.868Z,997.85
2019-04-03T11:21:37.695Z,997.82
2019-04-03T11:23:38.243Z,997.86
2019-04-03T11:24:30.361Z,997.88
2019-04-03T11:26:24.513Z,997.89
2019-04-03T11:27:29.051Z,997.88
2019-04-03T11:29:16.175Z,997.91
2019-04-03T11:30:18.147Z,997.94
2019-04-03T11:32:09.922Z,997.89
2019-04-03T11:33:09.212Z,997.87
2019-04-03T11:35:01.987Z,997.90
2019-04-03T11:36:02.160Z,997.89
2019-04-03T11:37:54.985Z,997.82
2019-04-03T11:39:06.581Z,997.85
2019-04-03T11:40:49.855Z,997.77
2019-04-03T11:41:47.840Z,997.78
2019-04-03T11:43:40.866Z,997.74
2019-04-03T11:44:40.756Z,997.76
2019-04-03T11:46:33.661Z,997.70
2019-04-03T11:47:33.678Z,997.68
2019-04-03T11:49:26.792Z,997.71
2019-04-03T11:50:26.629Z,997.66
2019-04-03T11:52:19.671Z,997.63
2019-04-03T11:53:19.505Z,997.59
2019-04-03T11:55:12.412Z,997.54
2019-04-03T11:56:13.290Z,997.54
2019-04-03T11:58:05.333Z,997.55
2019-04-03T11:59:05.338Z,997.56
2019-04-03T12:00:58.567Z,997.51
2019-04-03T12:01:58.583Z,997.52
2019-04-03T12:03:51.651Z,997.42
2019-04-03T12:04:51.175Z,997.39
2019-04-03T12:06:44.326Z,997.30
2019-04-03T12:07:44.464Z,997.28
2019-04-03T12:09:37.063Z,997.30
2019-04-03T12:10:37.512Z,997.33
2019-04-03T12:12:29.929Z,997.47
2019-04-03T12:13:29.933Z,997.52
2019-04-03T12:15:22.840Z,997.51
2019-04-03T12:16:24.860Z,997.47
2019-04-03T12:18:16.111Z,997.44
2019-04-03T12:19:15.970Z,997.41
2019-04-03T12:21:10.662Z,997.38
2019-04-03T12:22:08.919Z,997.36
2019-04-03T12:24:02.095Z,997.35
2019-04-03T12:25:02.104Z,997.28
2019-04-03T12:26:55.890Z,997.23
2019-04-03T12:27:55.023Z,997.23
2019-04-03T12:29:47.934Z,997.12
2019-04-03T12:30:48.006Z,997.06
2019-04-03T12:32:45.686Z,997.03
2019-04-03T12:33:52.402Z,997.02
2019-04-03T12:35:34.076Z,997.01
2019-04-03T12:36:33.788Z,996.97
2019-04-03T12:38:26.703Z,996.95
2019-04-03T12:39:27.892Z,996.95
2019-04-03T12:41:19.926Z,996.94
2019-04-03T12:42:19.970Z,996.88
2019-04-03T12:44:12.539Z,996.91
2019-04-03T12:45:12.551Z,996.94
2019-04-03T12:47:11.954Z,996.92
2019-04-03T12:48:05.632Z,996.96
2019-04-03T12:49:58.427Z,997.00
2019-04-03T12:50:59.324Z,996.98
2019-04-03T12:52:51.616Z,996.87
2019-04-03T12:53:51.317Z,996.76
2019-04-03T12:55:44.456Z,996.71
2019-04-03T12:56:44.664Z,996.73
2019-04-03T12:58:37.979Z,996.79
2019-04-03T12:59:39.314Z,996.77
2019-04-03T13:01:30.076Z,996.76
2019-04-03T13:02:30.156Z,996.71
2019-04-03T13:04:25.255Z,996.78
2019-04-03T13:05:23.275Z,996.83
2019-04-03T13:07:16.208Z,996.87
2019-04-03T13:08:16.365Z,996.85
2019-04-03T13:10:08.862Z,996.93
2019-04-03T13:11:08.858Z,996.95
2019-04-03T13:13:01.771Z,997.04
2019-04-03T13:14:01.861Z,997.03
2019-04-03T13:15:55.015Z,996.96
2019-04-03T13:16:54.700Z,996.95
2019-04-03T13:18:47.612Z,996.93
2019-04-03T13:19:47.618Z,996.96
2019-04-03T13:21:40.737Z,996.97
2019-04-03T13:22:42.589Z,996.94
2019-04-03T13:24:33.569Z,996.88
2019-04-03T13:25:33.456Z,996.84
2019-04-03T13:27:26.709Z,996.79
2019-04-03T13:28:26.380Z,996.68
2019-04-03T13:30:19.284Z,996.51
2019-04-03T13:31:19.646Z,996.50
2019-04-03T13:33:12.348Z,996.50
2019-04-03T13:34:12.219Z,996.48
2019-04-03T13:36:05.291Z,996.40
2019-04-03T13:37:05.392Z,996.31
2019-04-03T13:39:00.334Z,996.25
2019-04-03T13:40:00.379Z,996.22
2019-04-03T13:41:50.971Z,996.22
2019-04-03T13:42:50.984Z,996.27
2019-04-03T13:44:43.991Z,996.26
2019-04-03T13:45:43.902Z,996.28
2019-04-03T13:47:39.756Z,996.27
2019-04-03T13:48:37.688Z,996.27
2019-04-03T13:50:29.741Z,996.27
2019-04-03T13:51:29.745Z,996.24
2019-04-03T13:53:25.408Z,996.27
2019-04-03T13:54:25.286Z,996.25
2019-04-03T13:56:15.594Z,996.29
2019-04-03T13:57:16.227Z,996.27
2019-04-03T13:59:08.605Z,996.22
2019-04-03T14:00:18.355Z,996.26
2019-04-03T14:02:01.440Z,996.22
2019-04-03T14:03:01.548Z,996.19
2019-04-03T14:04:56.401Z,996.12
2019-04-03T14:05:54.424Z,996.09
2019-04-03T14:07:47.277Z,996.09
2019-04-03T14:08:47.317Z,996.12
2019-04-03T14:10:40.194Z,996.13
2019-04-03T14:11:40.208Z,996.17
2019-04-03T14:13:33.488Z,996.17
2019-04-03T14:14:33.128Z,996.15
2019-04-03T14:16:26.048Z,996.27
2019-04-03T14:17:26.198Z,996.32
2019-04-03T14:19:19.059Z,996.37
2019-04-03T14:20:19.060Z,996.36
2019-04-03T14:22:12.069Z,996.26
2019-04-03T14:23:12.113Z,996.19
2019-04-03T14:25:17.500Z,996.14
2019-04-03T14:26:07.799Z,996.12
2019-04-03T14:27:58.153Z,996.07
2019-04-03T14:28:57.960Z,996.07
2019-04-03T14:30:50.735Z,996.03
2019-04-03T14:31:50.855Z,996.02
2019-04-03T14:33:46.278Z,996.00
2019-04-03T14:34:43.675Z,995.96
2019-04-03T14:36:36.901Z,995.95
2019-04-03T14:37:36.596Z,995.97
2019-04-03T14:39:29.749Z,995.89
2019-04-03T14:40:29.522Z,995.90
2019-04-03T14:42:24.258Z,995.89
2019-04-03T14:43:22.844Z,995.90
2019-04-03T14:45:15.920Z,995.99
2019-04-03T14:46:17.434Z,996.03
2019-04-03T14:48:08.282Z,996.16
2019-04-03T14:49:08.289Z,996.19
2019-04-03T14:51:01.200Z,996.11
2019-04-03T14:52:01.214Z,996.05
2019-04-03T14:53:54.550Z,996.06
2019-04-03T14:54:56.003Z,996.02
2019-04-03T14:56:47.053Z,996.04
2019-04-03T14:57:47.159Z,996.05
2019-04-03T14:59:39.970Z,996.07
2019-04-03T15:00:40.240Z,996.10
2019-04-03T15:02:33.316Z,996.05
2019-04-03T15:03:34.298Z,996.00
2019-04-03T15:05:26.609Z,995.98
2019-04-03T15:06:25.833Z,995.95
2019-04-03T15:08:20.234Z,996.00
2019-04-03T15:09:18.840Z,996.00
2019-04-03T15:11:12.418Z,995.94
2019-04-03T15:12:12.531Z,995.89
2019-04-03T15:14:04.598Z,995.81
2019-04-03T15:15:04.643Z,995.85
2019-04-03T15:16:57.701Z,995.82
2019-04-03T15:17:57.748Z,995.79
2019-04-03T15:19:50.446Z,995.77
2019-04-03T15:20:51.060Z,995.76
2019-04-03T15:22:43.618Z,995.77
2019-04-03T15:23:43.387Z,995.80
2019-04-03T15:25:36.296Z,995.76
2019-04-03T15:26:36.346Z,995.75
2019-04-03T15:28:30.579Z,995.63
2019-04-03T15:29:29.474Z,995.67
2019-04-03T15:31:23.881Z,995.72
2019-04-03T15:32:22.165Z,995.77
2019-04-03T15:34:15.080Z,995.82
2019-04-03T15:35:15.111Z,995.80
2019-04-03T15:37:09.045Z,995.71
2019-04-03T15:38:08.004Z,995.69
2019-04-03T15:40:01.366Z,995.70
2019-04-03T15:41:00.934Z,995.74
2019-04-03T15:42:54.582Z,995.77
2019-04-03T15:43:53.855Z,995.71
2019-04-03T15:45:46.782Z,995.70
2019-04-03T15:46:46.783Z,995.69
2019-04-03T15:48:40.917Z,995.58
2019-04-03T15:49:39.735Z,995.53
2019-04-03T15:51:32.631Z,995.50
2019-04-03T15:52:32.649Z,995.48
2019-04-03T15:54:26.440Z,995.51
2019-04-03T15:55:25.554Z,995.51
2019-04-03T15:57:20.082Z,995.48
2019-04-03T15:58:18.638Z,995.48
2019-04-03T16:00:11.433Z,995.47
2019-04-03T16:01:11.580Z,995.54
2019-04-03T16:03:04.333Z,995.51
2019-04-03T16:04:04.642Z,995.52
2019-04-03T16:05:57.574Z,995.57
2019-04-03T16:06:57.671Z,995.65
2019-04-03T16:08:50.187Z,995.86
2019-04-03T16:09:51.331Z,995.93
2019-04-03T16:11:43.106Z,996.01
2019-04-03T16:12:44.015Z,996.03
2019-04-03T16:14:36.033Z,995.97
2019-04-03T16:15:36.041Z,995.87
2019-04-03T16:17:29.207Z,995.85
2019-04-03T16:18:28.961Z,995.84
2019-04-03T16:20:21.871Z,995.88
2019-04-03T16:21:23.662Z,995.88
2019-04-03T16:23:14.989Z,995.82
2019-04-03T16:24:14.807Z,995.75
2019-04-03T16:26:07.921Z,995.67
2019-04-03T16:27:08.466Z,995.65
2019-04-03T16:29:00.873Z,995.67
2019-04-03T16:30:00.707Z,995.68
2019-04-03T16:31:54.912Z,995.81
2019-04-03T16:32:56.529Z,995.86
2019-04-03T16:34:46.482Z,995.87
2019-04-03T16:35:46.634Z,995.86
2019-04-03T16:37:39.403Z,995.85
2019-04-03T16:38:39.415Z,995.86
2019-04-03T16:40:32.428Z,995.85
2019-04-03T16:41:32.441Z,995.84
2019-04-03T16:43:25.245Z,995.78
2019-04-03T16:44:26.275Z,995.74
2019-04-03T16:46:18.165Z,995.74
2019-04-03T16:47:18.171Z,995.70
2019-04-03T16:49:11.158Z,995.76
2019-04-03T16:50:11.215Z,995.79
2019-04-03T16:52:05.640Z,995.72
2019-04-03T16:53:04.018Z,995.71
2019-04-03T16:54:57.386Z,995.70
2019-04-03T16:55:57.330Z,995.68
2019-04-03T16:57:53.145Z,995.63
2019-04-03T16:58:50.095Z,995.59
2019-04-03T17:00:42.862Z,995.56
2019-04-03T17:01:44.969Z,995.53
2019-04-03T17:03:35.685Z,995.58
2019-04-03T17:04:36.913Z,995.57
2019-04-03T17:06:28.606Z,995.52
2019-04-03T17:07:29.040Z,995.51
2019-04-03T17:09:21.545Z,995.50
2019-04-03T17:10:21.535Z,995.47
2019-04-03T17:12:17.079Z,995.50
2019-04-03T17:13:14.586Z,995.50
2019-04-03T17:15:07.370Z,995.47
2019-04-03T17:16:07.827Z,995.44
2019-04-03T17:18:00.291Z,995.44
2019-04-03T17:19:00.292Z,995.41
2019-04-03T17:20:55.317Z,995.36
2019-04-03T17:21:53.608Z,995.35
2019-04-03T17:23:46.672Z,995.37
2019-04-03T17:24:48.941Z,995.40
2019-04-03T17:26:49.796Z,995.38
2019-04-03T17:27:39.283Z,995.43
2019-04-03T17:29:32.508Z,995.47
2019-04-03T17:30:32.053Z,995.48
2019-04-03T17:32:24.889Z,995.46
2019-04-03T17:33:24.895Z,995.43
2019-04-03T17:35:17.799Z,995.42
2019-04-03T17:36:19.860Z,995.40
2019-04-03T17:38:10.722Z,995.42
2019-04-03T17:39:11.171Z,995.41
2019-04-03T17:41:05.070Z,995.35
2019-04-03T17:42:03.646Z,995.29
2019-04-03T17:43:56.562Z,995.23
2019-04-03T17:44:56.565Z,995.19
2019-04-03T17:46:49.518Z,995.17
2019-04-03T17:47:49.721Z,995.18
2019-04-03T17:49:42.404Z,995.19
2019-04-03T17:50:42.410Z,995.16
2019-04-03T17:52:36.385Z,995.16
2019-04-03T17:53:36.732Z,995.15
2019-04-03T17:55:28.233Z,995.19
2019-04-03T17:56:28.248Z,995.17
2019-04-03T17:58:21.158Z,995.21